Time;durP1;ratioP1;P1;durP2;ratioP2;P2;SDS_P1;SDS_P2;PMS_P1;PMS_P2;Temp;Humidity;BMP_temperature;BMP_pressure;BME280_temperature;BME280_humidity;BME280_pressure;Samples;Min_cycle;Max_cycle;Signal;HPM_P1;HPM_P2
2023/05/31 00:01:12;;;;;;;5.55;3.55;;;11.80;99.90;;;;;;5024247;28;20096;-82
2023/05/31 00:03:42;;;;;;;7.13;4.30;;;13.00;99.90;;;;;;5038932;28;20080;-81
2023/05/31 00:06:11;;;;;;;6.00;4.30;;;13.10;99.90;;;;;;5023529;28;20037;-81
2023/05/31 00:08:38;;;;;;;7.70;4.13;;;11.50;99.90;;;;;;5043708;28;20040;-81
2023/05/31 00:11:05;;;;;;;6.78;3.92;;;12.30;99.90;;;;;;5021404;28;20037;-82
2023/05/31 00:13:31;;;;;;;4.63;3.60;;;11.50;99.90;;;;;;5040412;28;20045;-83
2023/05/31 00:15:57;;;;;;;6.70;4.22;;;10.90;99.90;;;;;;5040262;28;20041;-81
2023/05/31 00:18:23;;;;;;;5.18;3.97;;;10.90;99.90;;;;;;5041572;28;20508;-84
2023/05/31 00:20:49;;;;;;;6.30;4.15;;;11.20;99.90;;;;;;5005651;28;20041;-83
2023/05/31 00:23:14;;;;;;;3.67;3.38;;;12.60;99.90;;;;;;5033099;28;20053;-83
2023/05/31 00:25:40;;;;;;;6.93;4.13;;;10.70;99.90;;;;;;5053109;28;20092;-82
2023/05/31 00:28:06;;;;;;;7.93;3.92;;;10.90;99.90;;;;;;5040701;28;20455;-84
2023/05/31 00:30:31;;;;;;;4.28;3.20;;;10.60;99.90;;;;;;5039333;28;20037;-80
2023/05/31 00:32:57;;;;;;;6.53;3.95;;;10.70;99.90;;;;;;5043842;28;20064;-85
2023/05/31 00:35:23;;;;;;;6.18;4.00;;;10.70;99.90;;;;;;5021018;28;20045;-83
2023/05/31 00:37:48;;;;;;;5.07;3.70;;;11.70;99.90;;;;;;5040005;28;20455;-81
2023/05/31 00:40:14;;;;;;;7.70;4.10;;;10.70;99.90;;;;;;5040068;28;20836;-83
2023/05/31 00:42:39;;;;;;;7.10;3.78;;;10.70;99.90;;;;;;5039910;28;20080;-83
2023/05/31 00:45:06;;;;;;;5.50;4.13;;;10.70;99.90;;;;;;5041132;28;20036;-81
2023/05/31 00:47:33;;;;;;;6.20;4.57;;;10.60;99.90;;;;;;5020363;28;20045;-84
2023/05/31 00:49:59;;;;;;;5.32;3.72;;;11.20;99.90;;;;;;5039601;28;20033;-82
2023/05/31 00:52:26;;;;;;;10.13;4.40;;;10.60;99.90;;;;;;5041434;28;20096;-84
2023/05/31 00:54:51;;;;;;;7.30;4.40;;;12.00;99.90;;;;;;5044539;28;20047;-82
2023/05/31 00:57:17;;;;;;;4.82;4.03;;;11.20;99.90;;;;;;5045472;28;20044;-82
2023/05/31 00:59:43;;;;;;;7.38;4.18;;;10.50;99.90;;;;;;5018361;28;20397;-85
2023/05/31 01:02:10;;;;;;;5.90;4.22;;;10.50;99.90;;;;;;5035574;28;20503;-83
2023/05/31 01:04:36;;;;;;;9.93;4.03;;;10.50;99.90;;;;;;5018608;28;20052;-80
2023/05/31 01:07:01;;;;;;;5.53;3.92;;;10.50;99.90;;;;;;5044112;28;20036;-82
2023/05/31 01:09:30;;;;;;;5.15;3.90;;;10.40;99.90;;;;;;5040202;28;20096;-83
2023/05/31 01:12:13;;;;;;;6.57;3.53;;;10.40;99.90;;;;;;5046577;28;20261;-81
2023/05/31 01:14:47;;;;;;;7.63;4.05;;;10.40;99.90;;;;;;5041010;28;20072;-84
2023/05/31 01:17:39;;;;;;;6.05;4.05;;;10.40;99.90;;;;;;5038035;28;20112;-82
2023/05/31 01:20:09;;;;;;;10.70;4.18;;;10.30;99.90;;;;;;5038905;28;20144;-83
2023/05/31 01:22:43;;;;;;;4.05;3.30;;;10.30;99.90;;;;;;5037473;28;20448;-83
2023/05/31 01:25:25;;;;;;;5.88;4.22;;;11.90;99.90;;;;;;5039872;28;20049;-85
2023/05/31 01:27:52;;;;;;;9.70;4.97;;;10.60;99.90;;;;;;5040000;28;20416;-85
2023/05/31 01:30:21;;;;;;;5.07;3.83;;;12.00;99.90;;;;;;5035103;28;20052;-85
2023/05/31 01:32:48;;;;;;;5.43;3.90;;;10.20;99.90;;;;;;5041328;28;20049;-84
2023/05/31 01:35:14;;;;;;;5.85;3.88;;;10.20;99.90;;;;;;5035647;28;20036;-85
2023/05/31 01:37:39;;;;;;;5.10;4.05;;;10.20;99.90;;;;;;5021120;28;20158;-81
2023/05/31 01:40:06;;;;;;;5.93;4.25;;;10.20;99.90;;;;;;5039924;28;20103;-83
2023/05/31 01:42:32;;;;;;;7.28;3.97;;;10.10;99.90;;;;;;5036776;28;20037;-82
2023/05/31 01:44:59;;;;;;;6.55;4.03;;;10.10;99.90;;;;;;5007964;28;20815;-81
2023/05/31 01:47:25;;;;;;;8.95;4.90;;;10.00;99.90;;;;;;5040773;28;20100;-81
2023/05/31 01:49:52;;;;;;;5.82;4.25;;;10.00;99.90;;;;;;5035866;28;20040;-81
2023/05/31 01:52:19;;;;;;;8.98;4.88;;;9.90;99.90;;;;;;5039281;28;20404;-84
2023/05/31 01:54:45;;;;;;;7.35;4.82;;;11.80;99.90;;;;;;5033659;28;20045;-84
2023/05/31 01:57:13;;;;;;;6.80;3.95;;;9.90;99.90;;;;;;5041857;28;20488;-84
2023/05/31 01:59:40;;;;;;;4.82;3.88;;;9.90;99.90;;;;;;5022696;28;20499;-85
2023/05/31 02:02:06;;;;;;;5.85;3.70;;;9.90;99.90;;;;;;5038752;28;20064;-85
2023/05/31 02:04:32;;;;;;;4.72;4.20;;;9.70;99.90;;;;;;5038764;28;20067;-83
2023/05/31 02:06:57;;;;;;;6.55;3.97;;;9.80;99.90;;;;;;5033416;28;20045;-85
2023/05/31 02:09:23;;;;;;;6.82;4.85;;;9.90;99.90;;;;;;5018510;28;20041;-85
2023/05/31 02:11:49;;;;;;;5.90;4.43;;;11.60;99.90;;;;;;5040545;28;20528;-84
2023/05/31 02:14:15;;;;;;;8.38;4.70;;;9.90;99.90;;;;;;5042796;28;20151;-85
2023/05/31 02:16:41;;;;;;;6.38;4.50;;;9.90;99.90;;;;;;5023383;28;20079;-85
2023/05/31 02:19:08;;;;;;;4.90;4.07;;;9.90;99.90;;;;;;5045410;28;20046;-82
2023/05/31 02:21:35;;;;;;;5.07;4.57;;;9.80;99.90;;;;;;5050997;28;20046;-81
2023/05/31 02:24:01;;;;;;;7.75;4.40;;;8.80;99.90;;;;;;5040954;28;20049;-82
2023/05/31 02:26:26;;;;;;;7.55;4.78;;;9.80;99.90;;;;;;5040071;28;20383;-85
2023/05/31 02:28:52;;;;;;;5.03;4.22;;;9.80;99.90;;;;;;5036933;28;20068;-84
2023/05/31 02:31:18;;;;;;;6.18;4.25;;;10.40;99.90;;;;;;5041345;28;20048;-83
2023/05/31 02:33:43;;;;;;;8.90;4.43;;;9.70;99.90;;;;;;5039883;28;20038;-85
2023/05/31 02:36:10;;;;;;;5.57;4.03;;;9.70;99.90;;;;;;5021120;28;20033;-83
2023/05/31 02:38:35;;;;;;;6.20;4.32;;;11.30;99.90;;;;;;5019829;28;20060;-85
2023/05/31 02:41:02;;;;;;;6.15;4.65;;;9.70;99.90;;;;;;4967043;28;20041;-84
2023/05/31 02:43:28;;;;;;;5.45;4.40;;;10.70;99.90;;;;;;5002338;28;20253;-82
2023/05/31 02:45:53;;;;;;;7.03;4.28;;;10.20;99.90;;;;;;5006298;28;20577;-85
2023/05/31 02:48:19;;;;;;;6.60;4.32;;;9.60;99.90;;;;;;5005524;28;20053;-82
2023/05/31 02:50:45;;;;;;;5.57;3.95;;;9.60;99.90;;;;;;5004306;28;20045;-84
2023/05/31 02:53:10;;;;;;;4.50;4.10;;;9.60;99.90;;;;;;5001501;28;20065;-81
2023/05/31 02:55:40;;;;;;;5.05;3.75;;;9.70;99.90;;;;;;5013858;28;20132;-84
2023/05/31 02:58:10;;;;;;;6.32;4.43;;;10.90;99.90;;;;;;5004603;28;20042;-81
2023/05/31 03:00:36;;;;;;;7.88;4.38;;;11.30;99.90;;;;;;5004478;28;20034;-83
2023/05/31 03:03:02;;;;;;;8.13;4.15;;;10.00;99.90;;;;;;5002620;28;20100;-84
2023/05/31 03:05:29;;;;;;;6.10;4.43;;;9.60;99.90;;;;;;5004987;28;20046;-81
2023/05/31 03:07:55;;;;;;;6.75;4.20;;;9.60;99.90;;;;;;5005468;28;20367;-79
2023/05/31 03:10:20;;;;;;;10.02;4.40;;;10.60;99.90;;;;;;5003289;28;20045;-82
2023/05/31 03:12:46;;;;;;;8.10;5.18;;;9.60;99.90;;;;;;5002338;28;20092;-84
2023/05/31 03:15:12;;;;;;;9.63;6.97;;;9.60;99.90;;;;;;5008761;28;20642;-84
2023/05/31 03:17:37;;;;;;;7.68;5.60;;;10.70;99.90;;;;;;5010185;28;20046;-83
2023/05/31 03:20:06;;;;;;;10.25;6.35;;;9.60;99.90;;;;;;5003756;28;20042;-83
2023/05/31 03:22:32;;;;;;;6.43;4.65;;;9.60;99.90;;;;;;5006134;28;20046;-80
2023/05/31 03:24:58;;;;;;;7.38;4.95;;;10.10;99.90;;;;;;5000242;28;20041;-84
2023/05/31 03:27:23;;;;;;;5.43;4.47;;;9.60;99.90;;;;;;5008313;28;20049;-85
2023/05/31 03:29:49;;;;;;;6.47;4.47;;;9.60;99.90;;;;;;5005413;28;20042;-81
2023/05/31 03:32:15;;;;;;;5.97;5.38;;;9.70;99.90;;;;;;5009204;28;20042;-82
2023/05/31 03:34:40;;;;;;;9.32;4.40;;;9.70;99.90;;;;;;5009240;28;20068;-84
2023/05/31 03:37:06;;;;;;;10.05;5.07;;;9.70;99.90;;;;;;5008594;28;20037;-85
2023/05/31 03:39:31;;;;;;;6.80;4.57;;;11.50;99.90;;;;;;5004158;28;20084;-84
2023/05/31 03:41:57;;;;;;;5.18;4.65;;;9.70;99.90;;;;;;5007241;28;20049;-83
2023/05/31 03:44:23;;;;;;;9.52;5.10;;;9.70;99.90;;;;;;5006744;28;20049;-83
2023/05/31 03:46:50;;;;;;;5.57;4.22;;;9.60;99.90;;;;;;5001423;28;20049;-83
2023/05/31 03:49:15;;;;;;;8.35;5.25;;;9.70;99.90;;;;;;5012835;28;20344;-84
2023/05/31 03:51:41;;;;;;;9.57;4.78;;;9.70;99.90;;;;;;5011897;28;20054;-83
2023/05/31 03:54:07;;;;;;;8.88;5.20;;;10.00;99.90;;;;;;5010684;28;20057;-82
2023/05/31 03:56:32;;;;;;;7.80;4.95;;;11.50;99.90;;;;;;5010615;28;20127;-82
2023/05/31 03:59:02;;;;;;;9.32;5.38;;;9.70;99.90;;;;;;5010721;28;20091;-84
2023/05/31 04:01:27;;;;;;;8.05;5.40;;;9.70;99.90;;;;;;5013464;28;20046;-84
2023/05/31 04:03:54;;;;;;;7.78;5.43;;;9.70;99.90;;;;;;5014987;28;20686;-85
2023/05/31 04:06:20;;;;;;;9.18;5.25;;;9.70;99.90;;;;;;5009659;28;20034;-82
2023/05/31 04:08:46;;;;;;;9.15;5.22;;;9.70;99.90;;;;;;5012427;28;20038;-85
2023/05/31 04:11:12;;;;;;;12.60;5.97;;;11.90;99.90;;;;;;5015862;28;20022;-81
2023/05/31 04:13:38;;;;;;;8.75;6.05;;;11.70;99.90;;;;;;5017384;28;20054;-82
2023/05/31 04:16:03;;;;;;;8.95;5.93;;;9.80;99.90;;;;;;5019972;28;20084;-81
2023/05/31 04:18:29;;;;;;;11.43;6.78;;;9.80;99.90;;;;;;5011007;28;20045;-83
2023/05/31 04:20:55;;;;;;;10.63;6.22;;;9.80;99.90;;;;;;5012268;28;20038;-80
2023/05/31 04:23:21;;;;;;;10.40;6.43;;;9.80;99.90;;;;;;5006800;28;20077;-81
2023/05/31 04:25:47;;;;;;;9.93;6.32;;;9.80;99.90;;;;;;5007544;28;20042;-82
2023/05/31 04:28:15;;;;;;;9.40;5.90;;;9.80;99.90;;;;;;5008315;28;20058;-84
2023/05/31 04:30:41;;;;;;;11.80;6.50;;;9.90;99.90;;;;;;5007608;28;20046;-81
2023/05/31 04:33:07;;;;;;;11.27;6.07;;;9.90;99.90;;;;;;5006670;28;20038;-79
2023/05/31 04:35:33;;;;;;;12.43;6.13;;;9.90;99.90;;;;;;5005193;28;20046;-82
2023/05/31 04:38:02;;;;;;;9.02;5.88;;;9.90;99.90;;;;;;5008376;28;20080;-80
2023/05/31 04:40:31;;;;;;;11.80;6.60;;;10.00;99.90;;;;;;5006384;28;20069;-81
2023/05/31 04:43:00;;;;;;;12.98;6.47;;;10.00;99.90;;;;;;5003449;28;20073;-81
2023/05/31 04:45:27;;;;;;;10.35;5.82;;;10.00;99.90;;;;;;5005682;28;20049;-80
2023/05/31 04:47:53;;;;;;;15.00;6.93;;;10.00;99.90;;;;;;5006771;28;20084;-81
2023/05/31 04:50:19;;;;;;;14.07;6.20;;;10.00;99.90;;;;;;5008010;28;20042;-81
2023/05/31 04:52:45;;;;;;;11.30;5.88;;;10.00;99.90;;;;;;5006808;28;20045;-80
2023/05/31 04:55:11;;;;;;;10.65;6.07;;;10.10;99.90;;;;;;5004591;28;20073;-83
2023/05/31 04:57:37;;;;;;;7.45;5.10;;;10.10;99.90;;;;;;5006259;28;20552;-80
2023/05/31 05:00:08;;;;;;;8.25;5.95;;;10.20;99.90;;;;;;5006261;28;20072;-81
2023/05/31 05:02:34;;;;;;;9.80;5.60;;;10.20;99.90;;;;;;5004236;28;20056;-82
2023/05/31 05:04:59;;;;;;;11.45;6.13;;;10.20;99.90;;;;;;4986508;28;20121;-81
2023/05/31 05:07:25;;;;;;;11.90;6.68;;;10.60;99.90;;;;;;5008282;28;20473;-81
2023/05/31 05:09:51;;;;;;;10.13;5.40;;;10.30;99.90;;;;;;5008279;28;20555;-81
2023/05/31 05:12:17;;;;;;;9.57;5.82;;;12.20;99.90;;;;;;5006982;28;20598;-83
2023/05/31 05:14:42;;;;;;;11.10;5.95;;;10.30;99.90;;;;;;5008623;28;20557;-82
2023/05/31 05:17:08;;;;;;;16.25;6.75;;;10.40;99.90;;;;;;5005707;28;20040;-81
2023/05/31 05:19:34;;;;;;;13.45;5.88;;;10.40;99.90;;;;;;5003223;28;20397;-81
2023/05/31 05:21:59;;;;;;;13.02;6.57;;;10.40;99.90;;;;;;5001121;28;20042;-81
2023/05/31 05:24:26;;;;;;;11.57;6.10;;;10.50;99.90;;;;;;5006994;28;20044;-81
2023/05/31 05:26:52;;;;;;;14.23;6.85;;;11.50;99.90;;;;;;4999649;28;20478;-81
2023/05/31 05:29:17;;;;;;;17.27;6.82;;;10.60;99.90;;;;;;4998197;28;20121;-81
2023/05/31 05:31:43;;;;;;;19.05;9.82;;;10.60;99.90;;;;;;4998612;28;20042;-82
2023/05/31 05:34:09;;;;;;;22.85;11.25;;;10.70;99.90;;;;;;5002192;28;20525;-80
2023/05/31 05:36:36;;;;;;;14.02;7.63;;;10.70;99.90;;;;;;5007052;28;20037;-81
2023/05/31 05:39:05;;;;;;;12.55;7.45;;;11.00;99.90;;;;;;5015445;28;20045;-80
2023/05/31 05:41:31;;;;;;;17.50;7.43;;;10.80;99.90;;;;;;5005410;28;20041;-80
2023/05/31 05:43:57;;;;;;;17.85;7.47;;;10.90;99.90;;;;;;5006321;28;20168;-80
2023/05/31 05:46:23;;;;;;;15.60;6.68;;;11.00;99.90;;;;;;5008571;28;20073;-82
2023/05/31 05:48:48;;;;;;;22.17;7.47;;;11.00;99.90;;;;;;5008354;28;20125;-83
2023/05/31 05:51:14;;;;;;;17.98;7.85;;;11.10;99.90;;;;;;5008564;28;20038;-83
2023/05/31 05:53:39;;;;;;;23.63;8.38;;;11.20;99.90;;;;;;5008522;28;20054;-84
2023/05/31 05:56:05;;;;;;;13.85;8.23;;;11.20;99.90;;;;;;5005733;28;20038;-84
2023/05/31 05:58:31;;;;;;;12.10;7.10;;;11.30;99.90;;;;;;5032130;28;20143;-81
2023/05/31 06:00:57;;;;;;;16.75;7.85;;;11.40;99.90;;;;;;4994434;28;20167;-84
2023/05/31 06:03:26;;;;;;;17.33;7.32;;;11.40;99.90;;;;;;5031397;28;20057;-83
2023/05/31 06:05:51;;;;;;;13.98;7.32;;;11.50;99.90;;;;;;5007834;28;20041;-84
2023/05/31 06:08:18;;;;;;;16.80;7.32;;;11.50;99.90;;;;;;5013355;28;20053;-85
2023/05/31 06:10:44;;;;;;;24.10;8.15;;;11.60;99.90;;;;;;5006394;28;20042;-82
2023/05/31 06:13:11;;;;;;;16.00;7.78;;;11.60;99.90;;;;;;5007039;28;20052;-82
2023/05/31 06:15:37;;;;;;;15.00;7.55;;;11.80;99.90;;;;;;5001483;28;20054;-83
2023/05/31 06:18:03;;;;;;;19.92;7.95;;;11.80;99.90;;;;;;4997473;28;20414;-85
2023/05/31 06:20:29;;;;;;;13.40;6.93;;;11.90;99.90;;;;;;5004866;28;20062;-82
2023/05/31 06:22:55;;;;;;;19.33;7.18;;;11.90;99.90;;;;;;5007298;28;20501;-82
2023/05/31 06:25:22;;;;;;;13.82;7.07;;;12.60;99.90;;;;;;4999822;28;20041;-84
2023/05/31 06:27:48;;;;;;;19.00;7.72;;;12.00;99.90;;;;;;4999889;28;20034;-82
2023/05/31 06:30:14;;;;;;;13.38;6.80;;;12.10;99.90;;;;;;5001105;28;20177;-81
2023/05/31 06:32:39;;;;;;;15.15;7.05;;;12.10;99.90;;;;;;5007026;28;20744;-85
2023/05/31 06:35:06;;;;;;;15.80;6.60;;;12.20;99.90;;;;;;4999541;28;20051;-85
2023/05/31 06:37:31;;;;;;;17.00;7.28;;;12.30;99.90;;;;;;5004671;28;20087;-80
2023/05/31 06:39:57;;;;;;;13.73;7.25;;;12.30;99.90;;;;;;5005983;28;20128;-82
2023/05/31 06:42:23;;;;;;;13.48;6.72;;;13.90;99.90;;;;;;5005613;28;20602;-83
2023/05/31 06:44:50;;;;;;;13.10;6.00;;;13.50;99.90;;;;;;4995412;28;20113;-81
2023/05/31 06:47:16;;;;;;;11.75;6.15;;;12.50;99.90;;;;;;5004063;28;20052;-83
2023/05/31 06:49:42;;;;;;;13.45;6.40;;;12.60;99.90;;;;;;5003856;28;20116;-84
2023/05/31 06:52:08;;;;;;;16.75;6.15;;;12.70;99.90;;;;;;5000995;28;20054;-80
2023/05/31 06:54:35;;;;;;;9.05;5.68;;;13.90;99.90;;;;;;4655206;28;10000132;-83
2023/05/31 06:57:02;;;;;;;14.55;5.65;;;12.80;99.90;;;;;;4988845;28;20402;-82
2023/05/31 06:59:28;;;;;;;10.65;5.40;;;12.80;99.90;;;;;;5006475;28;20482;-83
2023/05/31 07:01:54;;;;;;;15.18;5.82;;;12.90;99.90;;;;;;5006925;28;20083;-81
2023/05/31 07:04:20;;;;;;;15.50;5.15;;;13.10;99.90;;;;;;5010103;28;20042;-81
2023/05/31 07:06:46;;;;;;;8.50;4.43;;;13.10;99.90;;;;;;5008867;28;20046;-83
2023/05/31 07:09:12;;;;;;;12.57;5.68;;;14.00;99.90;;;;;;5008196;28;20046;-83
2023/05/31 07:11:42;;;;;;;9.38;4.75;;;13.10;99.90;;;;;;5004093;28;20058;-78
2023/05/31 07:14:09;;;;;;;9.13;3.75;;;13.60;99.90;;;;;;5005409;28;20096;-80
2023/05/31 07:16:35;;;;;;;9.10;4.75;;;14.90;99.90;;;;;;5018548;28;20054;-81
2023/05/31 07:19:02;;;;;;;9.05;4.40;;;13.40;99.90;;;;;;5009485;28;20073;-83
2023/05/31 07:21:27;;;;;;;10.18;4.38;;;13.40;99.90;;;;;;5008454;28;20054;-80
2023/05/31 07:23:54;;;;;;;7.72;3.97;;;14.90;99.90;;;;;;5011787;28;20041;-80
2023/05/31 07:26:20;;;;;;;7.63;3.85;;;13.50;99.90;;;;;;5003614;28;20046;-80
2023/05/31 07:28:46;;;;;;;15.90;4.68;;;15.00;99.90;;;;;;5005701;28;20038;-79
2023/05/31 07:31:12;;;;;;;6.63;3.58;;;13.60;99.90;;;;;;5000870;28;20154;-81
2023/05/31 07:33:38;;;;;;;11.82;4.82;;;15.60;99.90;;;;;;5008530;28;20611;-80
2023/05/31 07:36:04;;;;;;;6.07;2.80;;;13.70;99.90;;;;;;5002149;28;20053;-81
2023/05/31 07:38:30;;;;;;;7.88;3.10;;;13.80;99.90;;;;;;5000848;28;20049;-79
2023/05/31 07:40:56;;;;;;;9.48;3.10;;;14.10;99.90;;;;;;5001819;28;20045;-79
2023/05/31 07:43:23;;;;;;;7.85;3.88;;;13.90;99.90;;;;;;5003076;28;20060;-80
2023/05/31 07:45:49;;;;;;;7.60;3.50;;;13.90;99.90;;;;;;5000889;28;20049;-82
2023/05/31 07:48:19;;;;;;;7.15;3.33;;;15.30;99.90;;;;;;5004800;28;20438;-81
2023/05/31 07:50:46;;;;;;;5.55;3.40;;;14.00;99.90;;;;;;5024280;28;20060;-82
2023/05/31 07:53:11;;;;;;;5.68;2.60;;;14.10;99.90;;;;;;5010052;28;20123;-82
2023/05/31 07:55:37;;;;;;;7.10;3.75;;;14.00;99.90;;;;;;5010405;28;20077;-82
2023/05/31 07:58:03;;;;;;;6.20;3.20;;;15.40;99.90;;;;;;5008837;28;20042;-83
2023/05/31 08:00:29;;;;;;;7.15;3.40;;;14.20;99.90;;;;;;5020941;28;20058;-83
2023/05/31 08:02:55;;;;;;;6.38;3.30;;;14.30;99.90;;;;;;5014773;28;20543;-82
2023/05/31 08:05:20;;;;;;;9.20;3.97;;;15.80;99.90;;;;;;5003788;28;20551;-84
2023/05/31 08:07:47;;;;;;;8.98;3.85;;;14.80;99.90;;;;;;5009214;28;20085;-83
2023/05/31 08:10:13;;;;;;;6.70;3.47;;;14.40;99.90;;;;;;5005878;28;20037;-82
2023/05/31 08:12:39;;;;;;;6.80;3.70;;;14.50;99.90;;;;;;5008654;28;20053;-83
2023/05/31 08:15:05;;;;;;;10.98;3.30;;;14.50;99.90;;;;;;5008136;28;20046;-84
2023/05/31 08:17:31;;;;;;;9.27;3.45;;;14.60;99.90;;;;;;5008739;28;20071;-82
2023/05/31 08:19:57;;;;;;;8.13;3.80;;;15.70;99.90;;;;;;5007476;28;20117;-82
2023/05/31 08:22:22;;;;;;;6.65;3.63;;;15.70;99.90;;;;;;5004542;28;20489;-82
2023/05/31 08:24:48;;;;;;;10.00;3.85;;;14.70;99.90;;;;;;5008156;28;20044;-83
2023/05/31 08:27:14;;;;;;;9.73;4.35;;;14.80;99.90;;;;;;5004352;28;20677;-83
2023/05/31 08:29:40;;;;;;;8.05;3.95;;;15.80;99.90;;;;;;5007548;28;20855;-83
2023/05/31 08:32:06;;;;;;;10.77;3.67;;;14.90;99.90;;;;;;5000787;28;20120;-81
2023/05/31 08:34:31;;;;;;;6.93;3.67;;;15.00;99.90;;;;;;5007116;28;20407;-84
2023/05/31 08:36:57;;;;;;;10.27;4.15;;;15.00;99.90;;;;;;5002352;28;20116;-85
2023/05/31 08:39:23;;;;;;;6.32;3.55;;;15.30;99.90;;;;;;5002015;28;20117;-84
2023/05/31 08:42:01;;;;;;;10.35;3.83;;;15.20;99.90;;;;;;5002183;28;20522;-85
2023/05/31 08:44:28;;;;;;;8.93;4.22;;;15.20;99.90;;;;;;5004334;28;20046;-85
2023/05/31 08:46:58;;;;;;;7.95;4.28;;;15.70;99.90;;;;;;5004682;28;20121;-86
2023/05/31 08:49:24;;;;;;;6.57;3.63;;;15.30;99.90;;;;;;5009617;28;20092;-86
2023/05/31 08:51:50;;;;;;;10.00;4.15;;;15.30;99.90;;;;;;5002595;28;20486;-85
2023/05/31 08:54:17;;;;;;;7.95;3.15;;;15.40;99.90;;;;;;4998158;28;20049;-87
2023/05/31 08:56:45;;;;;;;5.07;2.85;;;15.50;99.90;;;;;;5030902;28;20177;-85
2023/05/31 08:59:11;;;;;;;6.40;3.35;;;15.50;99.90;;;;;;4998448;28;20061;-84
2023/05/31 09:01:41;;;;;;;9.43;3.20;;;15.50;99.90;;;;;;5002282;28;20060;-85
2023/05/31 09:04:07;;;;;;;6.38;3.05;;;15.60;99.90;;;;;;5009402;28;20379;-84
2023/05/31 09:06:34;;;;;;;4.70;2.90;;;16.00;99.90;;;;;;5002154;28;20053;-87
2023/05/31 09:09:00;;;;;;;7.40;2.65;;;15.80;99.90;;;;;;5000323;28;20041;-87
2023/05/31 09:11:26;;;;;;;5.38;3.42;;;15.80;99.90;;;;;;4998283;28;20462;-86
2023/05/31 09:13:53;;;;;;;7.70;3.00;;;15.90;99.90;;;;;;5041384;28;20089;-87
2023/05/31 09:16:20;;;;;;;11.35;3.67;;;16.70;99.90;;;;;;4997888;28;20049;-84
2023/05/31 09:18:45;;;;;;;8.65;3.08;;;16.00;99.90;;;;;;5002347;28;20041;-87
2023/05/31 09:21:13;;;;;;;9.50;2.78;;;17.40;99.90;;;;;;5001185;28;20030;-85
2023/05/31 09:23:59;;;;;;;10.35;3.10;;;16.20;99.90;;;;;;5008952;28;20088;-86
2023/05/31 09:26:25;;;;;;;8.65;2.92;;;16.30;99.90;;;;;;4985881;28;20441;-85
2023/05/31 09:28:52;;;;;;;8.95;2.97;;;16.30;99.90;;;;;;5001302;28;20041;-85
2023/05/31 09:31:18;;;;;;;8.80;3.55;;;17.70;99.90;;;;;;5002139;28;20042;-85
2023/05/31 09:33:49;;;;;;;8.95;3.53;;;17.80;99.90;;;;;;4997813;28;20114;-83
2023/05/31 09:36:24;;;;;;;11.68;4.32;;;16.60;99.90;;;;;;5006771;28;20486;-84
2023/05/31 09:38:57;;;;;;;15.23;4.05;;;16.70;99.90;;;;;;5000413;28;20549;-85
2023/05/31 09:41:23;;;;;;;9.57;4.45;;;16.80;99.90;;;;;;5001948;28;20057;-85
2023/05/31 09:43:49;;;;;;;16.17;5.35;;;17.60;99.90;;;;;;5003413;28;20034;-87
2023/05/31 09:46:20;;;;;;;12.23;4.20;;;17.40;99.90;;;;;;5007516;28;20046;-86
2023/05/31 09:48:57;;;;;;;16.25;4.50;;;17.70;99.90;;;;;;5016754;28;20056;-82
2023/05/31 09:51:23;;;;;;;17.38;4.47;;;16.70;99.90;;;;;;5007963;28;20042;-81
2023/05/31 09:53:51;;;;;;;10.18;4.07;;;16.60;99.90;;;;;;5011056;28;20053;-81
2023/05/31 09:56:21;;;;;;;9.93;4.18;;;17.60;99.90;;;;;;5001069;28;20050;-81
2023/05/31 09:58:47;;;;;;;10.57;5.13;;;17.40;99.90;;;;;;5000840;28;20042;-83
2023/05/31 10:01:15;;;;;;;12.55;4.60;;;17.90;99.90;;;;;;5000624;28;20413;-82
2023/05/31 10:03:40;;;;;;;11.52;4.20;;;17.40;99.90;;;;;;5004669;28;20057;-82
2023/05/31 10:06:07;;;;;;;11.18;5.10;;;16.60;99.90;;;;;;5003171;28;20045;-85
2023/05/31 10:08:33;;;;;;;11.00;4.30;;;16.60;99.90;;;;;;5007427;28;20041;-83
2023/05/31 10:11:00;;;;;;;13.55;4.97;;;16.50;99.90;;;;;;5003775;28;20030;-84
2023/05/31 10:13:32;;;;;;;11.65;5.53;;;16.50;99.90;;;;;;5008627;28;20053;-84
2023/05/31 10:16:06;;;;;;;10.38;4.90;;;16.60;99.90;;;;;;5028111;28;20033;-83
2023/05/31 10:18:35;;;;;;;9.35;4.53;;;16.60;99.90;;;;;;4999076;28;20505;-83
2023/05/31 10:21:23;;;;;;;14.63;5.00;;;16.70;99.90;;;;;;5006839;28;20124;-83
2023/05/31 10:24:08;;;;;;;10.70;4.90;;;16.70;99.90;;;;;;4997039;28;20547;-82
2023/05/31 10:27:04;;;;;;;15.63;5.38;;;16.80;99.90;;;;;;5001059;28;20084;-87
2023/05/31 10:29:48;;;;;;;14.10;5.13;;;16.70;99.90;;;;;;4999900;28;20070;-86
2023/05/31 10:32:20;;;;;;;8.93;4.78;;;16.80;99.90;;;;;;5005732;28;20050;-82
2023/05/31 10:34:46;;;;;;;12.38;5.00;;;18.60;99.90;;;;;;4996869;28;20088;-81
2023/05/31 10:37:13;;;;;;;12.15;4.80;;;18.30;99.90;;;;;;5005571;28;20482;-82
2023/05/31 10:39:48;;;;;;;11.85;4.95;;;16.80;99.90;;;;;;4997919;28;20077;-81
2023/05/31 10:42:29;;;;;;;9.23;4.95;;;16.90;99.90;;;;;;5007165;28;20149;-81
2023/05/31 10:45:12;;;;;;;12.20;5.40;;;16.90;99.90;;;;;;5007960;28;20037;-80
2023/05/31 10:47:59;;;;;;;7.05;4.63;;;17.00;99.90;;;;;;5000643;28;20057;-80
2023/05/31 10:50:25;;;;;;;10.63;5.30;;;17.00;99.90;;;;;;5007099;28;20046;-80
2023/05/31 10:52:51;;;;;;;10.45;5.07;;;17.10;99.90;;;;;;5007056;28;20449;-81
2023/05/31 10:55:23;;;;;;;8.52;6.22;;;17.20;99.90;;;;;;5006658;28;20088;-79
2023/05/31 10:57:53;;;;;;;9.95;5.47;;;17.30;99.90;;;;;;5001031;28;20038;-80
2023/05/31 11:00:25;;;;;;;11.05;5.85;;;17.50;99.90;;;;;;4999096;28;20402;-85
2023/05/31 11:02:56;;;;;;;11.13;5.15;;;17.50;99.90;;;;;;5003777;28;20097;-87
2023/05/31 11:05:24;;;;;;;10.80;6.22;;;17.50;99.90;;;;;;5006296;28;20452;-87
2023/05/31 11:07:51;;;;;;;11.63;6.18;;;17.60;99.90;;;;;;5003048;28;20049;-85
2023/05/31 11:10:28;;;;;;;14.63;6.05;;;17.80;99.90;;;;;;5027425;28;20423;-84
2023/05/31 11:13:02;;;;;;;10.18;5.35;;;17.80;99.90;;;;;;5003433;28;20116;-84
2023/05/31 11:15:38;;;;;;;;;;;17.90;99.90;;;;;;5004308;28;20113;-84
2023/05/31 11:18:09;;;;;;;10.68;5.15;;;18.00;99.90;;;;;;4997507;28;19933;-83
2023/05/31 11:20:36;;;;;;;9.82;5.05;;;18.10;99.90;;;;;;5008959;28;20038;-79
2023/05/31 11:23:24;;;;;;;9.52;4.78;;;18.20;99.90;;;;;;5009954;28;20042;-82
2023/05/31 11:26:10;;;;;;;12.00;5.25;;;18.30;99.90;;;;;;5017015;28;20034;-80
2023/05/31 11:28:57;;;;;;;14.00;4.60;;;18.40;99.90;;;;;;5000625;28;20038;-79
2023/05/31 11:31:50;;;;;;;8.52;3.85;;;18.60;99.90;;;;;;5004219;28;20398;-81
2023/05/31 11:34:43;;;;;;;28.57;5.20;;;18.60;99.90;;;;;;5007508;28;20049;-81
2023/05/31 11:37:11;;;;;;;25.92;8.15;;;18.70;99.90;;;;;;5003231;28;20728;-80
2023/05/31 11:39:42;;;;;;;12.10;5.03;;;18.60;99.90;;;;;;5005966;28;20080;-81
2023/05/31 11:42:10;;;;;;;10.32;4.50;;;19.10;99.90;;;;;;5004668;28;20056;-81
2023/05/31 11:44:41;;;;;;;14.05;5.00;;;19.20;99.90;;;;;;5008150;28;20030;-85
2023/05/31 11:47:10;;;;;;;13.10;5.30;;;19.30;99.90;;;;;;5006658;28;20044;-82
2023/05/31 11:49:37;;;;;;;10.88;4.50;;;19.40;99.90;;;;;;5009714;28;20121;-82
2023/05/31 11:52:04;;;;;;;12.52;3.80;;;19.50;99.90;;;;;;5016507;28;20037;-87
2023/05/31 11:54:32;;;;;;;8.02;3.38;;;19.50;99.90;;;;;;5023839;28;20088;-81
2023/05/31 11:57:04;;;;;;;106.03;9.15;;;19.70;99.90;;;;;;5009034;28;20076;-86
2023/05/31 11:59:32;;;;;;;7.78;3.58;;;19.60;99.90;;;;;;5008920;28;20056;-84
2023/05/31 12:02:02;;;;;;;9.75;3.30;;;19.80;99.90;;;;;;5010432;28;20531;-84
2023/05/31 12:04:29;;;;;;;6.28;3.10;;;20.00;99.90;;;;;;5009615;28;20049;-79
2023/05/31 12:06:55;;;;;;;8.38;3.38;;;19.90;99.90;;;;;;5011558;28;20137;-82
2023/05/31 12:09:24;;;;;;;11.63;3.95;;;20.00;99.90;;;;;;5006453;28;21603;-83
2023/05/31 12:11:50;;;;;;;7.15;3.58;;;20.30;99.90;;;;;;5007920;28;20038;-82
2023/05/31 12:14:15;;;;;;;8.45;3.80;;;20.10;99.90;;;;;;5006167;28;20093;-79
2023/05/31 12:16:41;;;;;;;9.07;3.47;;;20.20;99.90;;;;;;5008136;28;20540;-79
2023/05/31 12:19:13;;;;;;;7.75;3.75;;;20.40;99.90;;;;;;5005977;28;20041;-80
2023/05/31 12:21:39;;;;;;;5.85;3.03;;;20.50;99.90;;;;;;5008901;28;20058;-79
2023/05/31 12:24:17;;;;;;;9.25;4.20;;;20.60;99.90;;;;;;5003526;28;20819;-81
2023/05/31 12:26:44;;;;;;;8.15;3.60;;;20.80;99.90;;;;;;5007942;28;20049;-79
2023/05/31 12:29:13;;;;;;;11.23;4.00;;;20.70;99.90;;;;;;5003736;28;20042;-87
2023/05/31 12:31:39;;;;;;;8.68;4.28;;;20.80;99.90;;;;;;5006902;28;20500;-82
2023/05/31 12:34:04;;;;;;;6.60;3.90;;;20.80;99.90;;;;;;5004346;28;20061;-83
2023/05/31 12:36:58;;;;;;;10.50;3.85;;;21.70;99.90;;;;;;5000142;28;20046;-84
2023/05/31 12:39:27;;;;;;;13.38;4.80;;;21.40;99.90;;;;;;4999267;28;20089;-83
2023/05/31 12:41:52;;;;;;;12.35;4.18;;;21.00;99.90;;;;;;4997373;28;20049;-83
2023/05/31 12:44:22;;;;;;;13.18;4.13;;;21.20;99.90;;;;;;5039114;28;20405;-87
2023/05/31 12:46:50;;;;;;;10.73;3.70;;;21.20;99.90;;;;;;5007889;28;20076;-82
2023/05/31 12:49:27;;;;;;;9.65;3.08;;;21.20;99.90;;;;;;5011213;28;20244;-80